createdAt,value
2019-02-14T00:04:13.392Z,28.76
2019-02-14T00:09:16.090Z,27.54
2019-02-14T00:14:13.211Z,26.86
2019-02-14T00:19:26.308Z,26.69
2019-02-14T00:24:25.106Z,26.27
2019-02-14T00:29:33.351Z,26.94
2019-02-14T00:34:41.883Z,27.01
2019-02-14T00:39:50.157Z,27.03
2019-02-14T00:44:58.510Z,27.84
2019-02-14T00:50:06.685Z,27.99
2019-02-14T00:55:14.985Z,27.79
2019-02-14T01:00:23.271Z,28.87
2019-02-14T01:05:33.576Z,29.75
2019-02-14T01:10:39.248Z,29.93
2019-02-14T01:15:47.657Z,30.32
2019-02-14T01:20:55.869Z,31.91
2019-02-14T01:26:04.215Z,32.19
2019-02-14T01:31:12.522Z,32.37
2019-02-14T01:36:20.870Z,32.93
2019-02-14T01:41:29.166Z,33.16
2019-02-14T01:46:37.560Z,32.73
2019-02-14T01:51:45.833Z,33.29
2019-02-14T01:56:54.101Z,32.83
2019-02-14T02:02:02.376Z,32.71
2019-02-14T02:07:10.580Z,33.57
2019-02-14T02:12:18.905Z,33.43
2019-02-14T02:17:27.236Z,33.20
2019-02-14T02:22:35.665Z,33.12
2019-02-14T02:27:43.958Z,33.92
2019-02-14T02:32:52.142Z,33.73
2019-02-14T02:38:00.438Z,33.81
2019-02-14T02:43:08.745Z,33.56
2019-02-14T02:48:17.123Z,34.27
2019-02-14T02:53:25.316Z,33.60
2019-02-14T02:58:33.621Z,34.51
2019-02-14T03:03:41.889Z,34.51
2019-02-14T03:08:50.215Z,34.11
2019-02-14T03:13:58.466Z,33.76
2019-02-14T03:19:06.664Z,35.07
2019-02-14T03:24:14.858Z,34.54
2019-02-14T03:29:23.208Z,35.19
2019-02-14T03:34:31.349Z,34.80
2019-02-14T03:39:39.644Z,34.82
2019-02-14T03:44:47.723Z,36.56
2019-02-14T03:49:55.998Z,35.66
2019-02-14T03:55:04.117Z,35.24
2019-02-14T04:00:12.444Z,36.53
2019-02-14T04:05:20.774Z,36.70
2019-02-14T04:10:28.978Z,35.99
2019-02-14T04:15:37.169Z,36.76
2019-02-14T04:20:45.432Z,37.65
2019-02-14T04:25:53.673Z,39.34
2019-02-14T04:31:02.096Z,38.10
2019-02-14T04:36:10.312Z,37.06
2019-02-14T04:41:19.564Z,37.42
2019-02-14T04:46:28.337Z,37.23
2019-02-14T04:51:36.722Z,38.05
2019-02-14T04:56:45.242Z,37.61
2019-02-14T05:01:53.578Z,38.71
2019-02-14T05:07:02.987Z,38.28
2019-02-14T05:12:11.311Z,38.03
2019-02-14T05:17:19.488Z,38.47
2019-02-14T05:22:27.753Z,39.29
2019-02-14T05:27:37.532Z,40.21
2019-02-14T05:32:45.940Z,39.66
2019-02-14T05:37:54.213Z,39.17
2019-02-14T05:43:02.623Z,37.89
2019-02-14T05:48:10.801Z,39.89
2019-02-14T05:53:19.632Z,39.57
2019-02-14T05:58:28.855Z,39.78
2019-02-14T06:03:37.276Z,39.24
2019-02-14T06:08:45.576Z,39.54
2019-02-14T06:13:54.004Z,40.02
2019-02-14T06:19:02.210Z,38.85
2019-02-14T06:24:10.394Z,39.75
2019-02-14T06:29:18.721Z,39.27
2019-02-14T06:34:27.081Z,39.09
2019-02-14T06:39:35.320Z,38.40
2019-02-14T06:44:43.520Z,39.48
2019-02-14T06:49:51.785Z,39.44
2019-02-14T06:55:01.938Z,37.82
2019-02-14T07:00:11.229Z,38.88
2019-02-14T07:05:20.084Z,38.21
2019-02-14T07:10:28.560Z,37.97
2019-02-14T07:15:37.483Z,38.70
2019-02-14T07:20:45.781Z,38.36
2019-02-14T07:25:54.189Z,38.19
2019-02-14T07:31:02.382Z,39.27
2019-02-14T07:36:10.790Z,36.71
2019-02-14T07:41:18.949Z,37.76
2019-02-14T07:46:27.435Z,37.85
2019-02-14T07:51:35.694Z,37.23
2019-02-14T07:56:45.353Z,37.16
2019-02-14T08:01:53.726Z,37.38
2019-02-14T08:07:03.033Z,37.54
2019-02-14T08:12:11.708Z,37.34
2019-02-14T08:17:20.149Z,36.19
2019-02-14T08:22:28.493Z,36.41
2019-02-14T08:27:37.161Z,36.15
2019-02-14T08:29:11.549Z,39.93
2019-02-14T08:34:13.753Z,37.24
2019-02-14T08:39:22.630Z,35.81
2019-02-14T08:44:41.683Z,35.64
2019-02-14T08:49:40.675Z,35.48
2019-02-14T08:54:48.943Z,35.00
2019-02-14T08:59:57.064Z,34.68
2019-02-14T09:05:05.582Z,34.54
2019-02-14T09:10:14.095Z,34.98
2019-02-14T09:15:23.614Z,34.54
2019-02-14T09:20:33.163Z,34.13
2019-02-14T09:25:44.017Z,32.08
2019-02-14T09:30:42.321Z,32.70
2019-02-14T09:35:50.476Z,32.07
2019-02-14T09:41:00.691Z,33.13
2019-02-14T09:45:59.329Z,32.92
2019-02-14T09:51:08.187Z,32.29
2019-02-14T09:56:17.190Z,32.89
2019-02-14T10:01:26.646Z,33.38
2019-02-14T10:06:36.751Z,33.40
2019-02-14T10:11:42.356Z,32.33
2019-02-14T10:16:43.013Z,32.21
2019-02-14T10:21:51.700Z,33.35
2019-02-14T10:27:01.913Z,33.27
2019-02-14T10:32:10.000Z,31.79
2019-02-14T10:37:18.068Z,32.59
2019-02-14T10:42:26.191Z,31.92
2019-02-14T10:47:35.548Z,32.27
2019-02-14T10:52:44.088Z,31.56
2019-02-14T10:57:52.616Z,31.47
2019-02-14T11:03:00.945Z,31.24
2019-02-14T11:08:08.997Z,30.81
2019-02-14T11:13:16.929Z,29.99
2019-02-14T11:18:24.988Z,28.85
2019-02-14T11:23:33.829Z,28.03
2019-02-14T11:28:42.390Z,28.55
2019-02-14T11:33:50.964Z,27.41
2019-02-14T11:38:59.555Z,26.75
2019-02-14T11:44:07.610Z,26.30
2019-02-14T11:49:15.811Z,25.88
2019-02-14T11:54:23.751Z,23.94
2019-02-14T11:59:32.190Z,23.23
2019-02-14T12:04:40.145Z,22.04
2019-02-14T12:09:48.245Z,20.85
2019-02-14T12:14:56.367Z,21.02
2019-02-14T12:20:04.443Z,20.81
2019-02-14T12:25:12.433Z,20.16
2019-02-14T12:30:20.891Z,19.32
2019-02-14T12:35:29.141Z,18.07
2019-02-14T12:40:37.982Z,17.38
2019-02-14T12:45:46.240Z,17.41
2019-02-14T12:50:54.329Z,17.16
2019-02-14T12:56:02.472Z,17.06
2019-02-14T13:01:10.614Z,16.64
2019-02-14T13:06:18.605Z,16.49
2019-02-14T13:11:26.625Z,16.30
2019-02-14T13:16:34.996Z,16.70
2019-02-14T13:21:42.953Z,13.72
2019-02-14T13:26:50.923Z,14.09
2019-02-14T13:31:59.082Z,12.70
2019-02-14T13:37:07.177Z,11.27
2019-02-14T13:42:15.861Z,11.52
2019-02-14T13:47:24.632Z,11.38
2019-02-14T13:52:32.804Z,11.71
2019-02-14T13:57:40.733Z,11.21
2019-02-14T14:02:49.179Z,11.49
2019-02-14T14:07:57.846Z,12.03
2019-02-14T14:13:06.122Z,12.03
2019-02-14T14:18:14.350Z,11.94
2019-02-14T14:23:22.988Z,12.07
2019-02-14T14:28:31.380Z,12.47
2019-02-14T14:33:39.694Z,12.03
2019-02-14T14:38:47.890Z,12.03
2019-02-14T14:43:56.910Z,12.31
2019-02-14T14:49:05.474Z,12.51
2019-02-14T14:54:14.295Z,11.45
2019-02-14T14:59:22.454Z,11.62
2019-02-14T15:04:30.707Z,11.41
2019-02-14T15:09:38.931Z,11.28
2019-02-14T15:14:47.166Z,12.75
2019-02-14T15:19:55.482Z,11.67
2019-02-14T15:25:03.683Z,11.91
2019-02-14T15:30:11.912Z,11.45
2019-02-14T15:35:19.869Z,11.78
2019-02-14T15:40:27.876Z,12.02
2019-02-14T15:45:35.962Z,12.17
2019-02-14T15:50:43.908Z,12.06
2019-02-14T15:55:51.893Z,12.35
2019-02-14T16:01:00.061Z,12.06
2019-02-14T16:06:08.322Z,12.82
2019-02-14T16:11:16.533Z,14.61
2019-02-14T16:16:24.746Z,13.54
2019-02-14T16:21:33.031Z,12.67
2019-02-14T16:26:41.764Z,12.65
2019-02-14T16:31:50.109Z,19.41
2019-02-14T16:36:58.467Z,15.96
2019-02-14T16:42:07.778Z,13.25
2019-02-14T16:47:16.208Z,13.53
2019-02-14T16:52:24.883Z,13.62
2019-02-14T16:57:33.527Z,14.05
2019-02-14T17:02:42.072Z,17.36
2019-02-14T17:07:50.323Z,14.19
2019-02-14T17:12:58.961Z,17.66
2019-02-14T17:18:07.072Z,14.96
2019-02-14T17:23:15.770Z,15.26
2019-02-14T17:28:24.093Z,15.66
2019-02-14T17:33:32.357Z,19.69
2019-02-14T17:38:41.059Z,16.28
2019-02-14T17:43:49.469Z,16.85
2019-02-14T17:48:57.729Z,16.41
2019-02-14T17:54:06.083Z,15.49
2019-02-14T17:59:14.296Z,14.91
2019-02-14T18:04:22.709Z,15.63
2019-02-14T18:09:30.841Z,15.83
2019-02-14T18:14:39.164Z,15.74
2019-02-14T18:19:47.423Z,16.54
2019-02-14T18:24:56.265Z,17.06
2019-02-14T18:30:04.487Z,16.51
2019-02-14T18:35:13.084Z,16.69
2019-02-14T18:40:21.201Z,16.27
2019-02-14T18:45:29.937Z,21.11
2019-02-14T18:50:38.142Z,18.95
2019-02-14T18:55:46.549Z,17.68
2019-02-14T19:00:54.845Z,19.11
2019-02-14T19:06:03.898Z,17.14
2019-02-14T19:11:15.197Z,15.25
2019-02-14T19:16:19.710Z,16.74
2019-02-14T19:21:27.814Z,19.41
2019-02-14T19:26:36.094Z,16.46
2019-02-14T19:31:44.208Z,16.01
2019-02-14T19:36:52.584Z,17.38
2019-02-14T19:42:00.766Z,16.62
2019-02-14T19:47:09.336Z,14.94
2019-02-14T19:52:17.413Z,15.84
2019-02-14T19:57:26.144Z,16.26
2019-02-14T20:02:34.299Z,14.73
2019-02-14T20:07:42.612Z,16.96
2019-02-14T20:12:51.061Z,14.08
2019-02-14T20:17:59.394Z,13.93
2019-02-14T20:23:07.804Z,15.38
2019-02-14T20:28:15.945Z,15.37
2019-02-14T20:33:24.075Z,14.83
2019-02-14T20:38:32.309Z,13.81
2019-02-14T20:43:40.446Z,16.91
2019-02-14T20:48:48.901Z,14.96
2019-02-14T20:53:57.465Z,13.81
2019-02-14T20:59:06.025Z,13.53
2019-02-14T21:04:14.060Z,13.72
2019-02-14T21:09:22.502Z,15.58
2019-02-14T21:14:30.695Z,14.17
2019-02-14T21:19:38.717Z,13.95
2019-02-14T21:24:47.016Z,13.21
2019-02-14T21:29:55.290Z,13.76
2019-02-14T21:35:04.124Z,13.58
2019-02-14T21:40:12.139Z,14.97
2019-02-14T21:45:20.462Z,15.76
2019-02-14T21:50:30.159Z,19.68
2019-02-14T21:55:38.201Z,14.20
2019-02-14T22:00:46.558Z,12.93
2019-02-14T22:05:54.531Z,14.18
2019-02-14T22:11:02.717Z,13.38
2019-02-14T22:16:10.668Z,13.17
2019-02-14T22:21:18.667Z,15.15
2019-02-14T22:26:26.618Z,13.24
2019-02-14T22:31:35.313Z,13.55
2019-02-14T22:36:43.191Z,12.95
2019-02-14T22:41:51.192Z,13.06
2019-02-14T22:46:59.781Z,12.91
2019-02-14T22:52:07.812Z,12.84
2019-02-14T22:57:15.795Z,12.40
2019-02-14T23:02:23.893Z,12.12
2019-02-14T23:07:32.050Z,12.58
2019-02-14T23:12:40.195Z,12.92
2019-02-14T23:17:48.148Z,13.95
2019-02-14T23:22:56.166Z,13.30
2019-02-14T23:28:09.651Z,12.81
2019-02-14T23:33:08.028Z,12.44
2019-02-14T23:38:17.568Z,12.13
2019-02-14T23:43:25.579Z,12.30
2019-02-14T23:48:32.470Z,12.85
2019-02-14T23:53:40.602Z,12.66
2019-02-14T23:58:48.605Z,12.47
